Time;durP1;ratioP1;P1;durP2;ratioP2;P2;SDS_P1;SDS_P2;PMS_P1;PMS_P2;Temp;Humidity;BMP_temperature;BMP_pressure;BME280_temperature;BME280_humidity;BME280_pressure;Samples;Min_cycle;Max_cycle;Signal;HPM_P1;HPM_P2
2021/08/28 00:01:05;;;;;;;6.97;3.75;;;;;;;;;;5008754;28;20038;-71
2021/08/28 00:03:31;;;;;;;6.75;4.47;;;;;;;;;;4992034;28;20025;-72
2021/08/28 00:05:57;;;;;;;5.32;3.72;;;;;;;;;;4992358;28;20026;-73
2021/08/28 00:08:22;;;;;;;7.63;4.50;;;;;;;;;;5013472;28;20072;-73
2021/08/28 00:10:48;;;;;;;6.72;4.07;;;;;;;;;;4996054;28;20041;-71
2021/08/28 00:13:14;;;;;;;5.80;3.80;;;;;;;;;;5013389;28;20414;-72
2021/08/28 00:15:40;;;;;;;5.47;3.72;;;;;;;;;;4995986;28;20073;-73
2021/08/28 00:18:06;;;;;;;5.47;4.18;;;;;;;;;;5012954;28;20514;-72
2021/08/28 00:20:33;;;;;;;3.78;2.70;;;;;;;;;;4995588;28;20033;-72
2021/08/28 00:23:02;;;;;;;5.43;3.85;;;;;;;;;;5013612;28;20025;-74
2021/08/28 00:25:28;;;;;;;3.83;3.25;;;;;;;;;;4995948;28;20489;-72
2021/08/28 00:27:54;;;;;;;6.10;3.80;;;;;;;;;;5013207;28;20042;-72
2021/08/28 00:30:19;;;;;;;3.97;3.28;;;;;;;;;;5013217;28;20406;-72
2021/08/28 00:32:45;;;;;;;5.07;3.03;;;;;;;;;;4995527;28;20041;-72
2021/08/28 00:35:12;;;;;;;5.35;3.42;;;;;;;;;;5011868;28;20474;-72
2021/08/28 00:37:37;;;;;;;5.47;3.28;;;;;;;;;;5013638;28;20030;-72
2021/08/28 00:40:07;;;;;;;3.83;2.97;;;;;;;;;;5011950;28;20393;-73
2021/08/28 00:42:43;;;;;;;4.20;3.08;;;;;;;;;;5013103;28;20033;-72
2021/08/28 00:45:10;;;;;;;5.28;3.72;;;;;;;;;;5013235;28;20044;-73
2021/08/28 00:47:35;;;;;;;4.60;3.10;;;;;;;;;;4994757;28;20037;-73
2021/08/28 00:50:01;;;;;;;6.95;3.28;;;;;;;;;;5013138;28;20052;-73
2021/08/28 00:52:27;;;;;;;4.00;3.03;;;;;;;;;;4995222;28;20477;-73
2021/08/28 00:54:52;;;;;;;7.75;2.75;;;;;;;;;;5011984;28;20025;-73
2021/08/28 00:57:18;;;;;;;4.43;2.83;;;;;;;;;;4994922;28;20029;-73
2021/08/28 00:59:43;;;;;;;3.85;2.90;;;;;;;;;;4995246;28;20034;-73
2021/08/28 01:02:10;;;;;;;5.32;2.50;;;;;;;;;;5012744;28;20029;-72
2021/08/28 01:04:50;;;;;;;2.58;2.38;;;;;;;;;;5012380;28;20034;-73
2021/08/28 01:07:28;;;;;;;4.07;2.75;;;;;;;;;;4995099;28;20029;-72
2021/08/28 01:09:58;;;;;;;2.72;2.20;;;;;;;;;;4995655;28;20038;-73
2021/08/28 01:12:26;;;;;;;5.05;2.40;;;;;;;;;;4994941;28;20034;-72
2021/08/28 01:14:57;;;;;;;3.75;2.55;;;;;;;;;;5012815;28;20044;-72
2021/08/28 01:17:26;;;;;;;4.53;3.55;;;;;;;;;;5012111;28;20036;-73
2021/08/28 01:20:31;;;;;;;4.80;2.97;;;;;;;;;;4994247;28;20057;-72
2021/08/28 01:22:58;;;;;;;2.50;2.30;;;;;;;;;;4998703;28;20034;-72
2021/08/28 01:25:24;;;;;;;3.22;2.72;;;;;;;;;;4994688;28;20026;-72
2021/08/28 01:28:04;;;;;;;6.45;4.03;;;;;;;;;;4991356;28;20042;-71
2021/08/28 01:30:29;;;;;;;4.97;3.35;;;;;;;;;;4992995;28;20085;-70
2021/08/28 01:32:55;;;;;;;6.70;3.72;;;;;;;;;;4975123;28;20033;-71
2021/08/28 01:35:22;;;;;;;5.00;3.67;;;;;;;;;;4992557;28;20501;-73
2021/08/28 01:37:49;;;;;;;4.03;3.50;;;;;;;;;;4974882;28;20046;-71
2021/08/28 01:40:16;;;;;;;4.90;3.67;;;;;;;;;;4992333;28;20109;-72
2021/08/28 01:42:43;;;;;;;3.72;2.70;;;;;;;;;;4992415;28;20435;-72
2021/08/28 01:45:13;;;;;;;7.80;2.97;;;;;;;;;;4992575;28;20034;-72
2021/08/28 01:47:43;;;;;;;7.47;3.25;;;;;;;;;;4974412;28;20077;-72
2021/08/28 01:50:10;;;;;;;3.58;2.67;;;;;;;;;;4992149;28;20109;-72
2021/08/28 01:52:36;;;;;;;3.63;2.67;;;;;;;;;;4974519;28;20030;-74
2021/08/28 01:55:03;;;;;;;3.97;3.05;;;;;;;;;;4958651;28;20085;-72
2021/08/28 01:57:29;;;;;;;4.53;3.35;;;;;;;;;;4991895;28;20433;-72
2021/08/28 01:59:55;;;;;;;7.40;3.03;;;;;;;;;;4974815;28;20022;-72
2021/08/28 02:02:21;;;;;;;4.32;3.22;;;;;;;;;;4974532;28;20030;-71
2021/08/28 02:04:47;;;;;;;5.60;3.13;;;;;;;;;;4974719;28;20023;-72
2021/08/28 02:07:24;;;;;;;3.53;2.65;;;;;;;;;;4974447;28;20113;-73
2021/08/28 02:09:59;;;;;;;4.03;3.50;;;;;;;;;;4958631;28;20470;-72
2021/08/28 02:12:37;;;;;;;2.80;2.60;;;;;;;;;;4991514;28;20037;-74
2021/08/28 02:15:11;;;;;;;3.42;2.55;;;;;;;;;;4991935;28;20050;-72
2021/08/28 02:17:48;;;;;;;4.68;3.33;;;;;;;;;;4974006;28;20034;-72
2021/08/28 02:20:17;;;;;;;5.35;3.58;;;;;;;;;;4991655;28;20065;-72
2021/08/28 02:22:49;;;;;;;3.65;3.10;;;;;;;;;;4974029;28;20045;-72
2021/08/28 02:25:43;;;;;;;5.53;3.05;;;;;;;;;;4991612;28;20022;-71
2021/08/28 02:28:13;;;;;;;5.95;3.75;;;;;;;;;;4990674;28;20516;-72
2021/08/28 02:30:39;;;;;;;6.63;2.83;;;;;;;;;;5011120;28;20430;-72
2021/08/28 02:33:07;;;;;;;4.90;3.10;;;;;;;;;;5011296;28;20060;-72
2021/08/28 02:35:33;;;;;;;4.38;3.00;;;;;;;;;;5010953;28;20259;-71
2021/08/28 02:37:59;;;;;;;9.50;2.85;;;;;;;;;;5011187;28;20076;-71
2021/08/28 02:40:29;;;;;;;3.45;2.70;;;;;;;;;;5010607;28;20105;-72
2021/08/28 02:42:55;;;;;;;4.60;2.40;;;;;;;;;;5010826;28;20323;-71
2021/08/28 02:45:23;;;;;;;6.30;2.85;;;;;;;;;;4993103;28;20033;-72
2021/08/28 02:47:50;;;;;;;2.95;2.65;;;;;;;;;;5010676;28;20042;-72
2021/08/28 02:50:18;;;;;;;4.55;2.58;;;;;;;;;;4993087;28;20029;-72
2021/08/28 02:52:46;;;;;;;9.65;3.08;;;;;;;;;;5010124;28;20037;-72
2021/08/28 02:55:13;;;;;;;5.40;2.78;;;;;;;;;;4992704;28;20076;-73
2021/08/28 02:57:41;;;;;;;8.38;2.75;;;;;;;;;;5010180;28;20030;-72
2021/08/28 03:00:07;;;;;;;5.63;3.35;;;;;;;;;;5010360;28;20081;-72
2021/08/28 03:02:33;;;;;;;6.03;3.30;;;;;;;;;;5008359;28;20026;-73
2021/08/28 03:05:00;;;;;;;2.63;2.42;;;;;;;;;;4992602;28;20026;-72
2021/08/28 03:07:25;;;;;;;4.43;3.72;;;;;;;;;;5009714;28;20029;-72
2021/08/28 03:09:52;;;;;;;6.03;3.10;;;;;;;;;;5008659;28;20118;-72
2021/08/28 03:12:18;;;;;;;6.00;3.40;;;;;;;;;;4992042;28;20343;-72
2021/08/28 03:14:45;;;;;;;4.30;3.03;;;;;;;;;;4992047;28;20038;-71
2021/08/28 03:17:11;;;;;;;9.27;3.30;;;;;;;;;;5009890;28;20081;-71
2021/08/28 03:19:40;;;;;;;5.45;3.35;;;;;;;;;;5009685;28;20029;-72
2021/08/28 03:22:08;;;;;;;4.82;3.65;;;;;;;;;;4992155;28;20053;-72
2021/08/28 03:24:33;;;;;;;5.32;3.75;;;;;;;;;;5009956;28;20053;-72
2021/08/28 03:26:59;;;;;;;8.90;3.95;;;;;;;;;;5009888;28;20085;-72
2021/08/28 03:29:25;;;;;;;4.32;3.38;;;;;;;;;;4992090;28;20493;-72
2021/08/28 03:31:52;;;;;;;6.00;5.05;;;;;;;;;;5010042;28;20037;-72
2021/08/28 03:34:19;;;;;;;6.60;4.20;;;;;;;;;;5010279;28;20026;-72
2021/08/28 03:36:45;;;;;;;4.13;3.40;;;;;;;;;;4992044;28;20497;-71
2021/08/28 03:39:11;;;;;;;7.03;3.85;;;;;;;;;;5010275;28;20046;-72
2021/08/28 03:41:39;;;;;;;7.93;4.97;;;;;;;;;;4975449;28;20057;-72
2021/08/28 03:44:05;;;;;;;6.57;4.00;;;;;;;;;;5010107;28;20116;-71
2021/08/28 03:46:34;;;;;;;5.90;3.75;;;;;;;;;;5009730;28;20109;-71
2021/08/28 03:48:59;;;;;;;6.63;3.60;;;;;;;;;;5009904;28;20057;-72
2021/08/28 03:51:25;;;;;;;6.65;4.45;;;;;;;;;;5009788;28;20072;-73
2021/08/28 03:53:51;;;;;;;7.53;5.15;;;;;;;;;;4992499;28;20032;-72
2021/08/28 03:56:16;;;;;;;9.35;5.18;;;;;;;;;;5008687;28;20029;-72
2021/08/28 03:58:42;;;;;;;6.50;4.13;;;;;;;;;;5009821;28;20026;-72
2021/08/28 04:01:07;;;;;;;5.57;4.43;;;;;;;;;;4993300;28;20072;-72
2021/08/28 04:03:33;;;;;;;7.25;4.07;;;;;;;;;;5010529;28;20486;-71
2021/08/28 04:05:58;;;;;;;9.20;7.57;;;;;;;;;;5010381;28;20506;-72
2021/08/28 04:08:24;;;;;;;8.40;5.85;;;;;;;;;;5009080;28;20042;-71
2021/08/28 04:10:49;;;;;;;12.32;5.15;;;;;;;;;;5008644;28;20437;-72
2021/08/28 04:13:15;;;;;;;14.63;6.07;;;;;;;;;;5010908;28;20541;-74
2021/08/28 04:15:41;;;;;;;6.47;4.13;;;;;;;;;;5009890;28;20068;-73
2021/08/28 04:18:06;;;;;;;11.30;6.70;;;;;;;;;;5008337;28;20482;-72
2021/08/28 04:20:32;;;;;;;6.80;4.85;;;;;;;;;;4991848;28;20082;-72
2021/08/28 04:22:57;;;;;;;8.00;4.57;;;;;;;;;;5008660;28;20033;-73
2021/08/28 04:25:25;;;;;;;7.28;4.72;;;;;;;;;;5009606;28;20057;-72
2021/08/28 04:27:50;;;;;;;5.57;4.70;;;;;;;;;;5009435;28;20046;-72
2021/08/28 04:30:16;;;;;;;8.20;5.22;;;;;;;;;;4991905;28;20112;-71
2021/08/28 04:32:41;;;;;;;9.13;5.38;;;;;;;;;;5009680;28;20026;-72
2021/08/28 04:35:07;;;;;;;10.07;4.85;;;;;;;;;;5009499;28;20029;-71
2021/08/28 04:37:34;;;;;;;6.93;4.82;;;;;;;;;;5009867;28;20026;-71
2021/08/28 04:40:00;;;;;;;6.43;4.57;;;;;;;;;;4991809;28;20029;-72
2021/08/28 04:42:25;;;;;;;7.55;4.50;;;;;;;;;;5009968;28;20049;-72
2021/08/28 04:44:54;;;;;;;6.90;5.10;;;;;;;;;;5008266;28;20030;-72
2021/08/28 04:47:20;;;;;;;8.82;4.15;;;;;;;;;;5008357;28;20337;-72
2021/08/28 04:49:47;;;;;;;5.80;4.68;;;;;;;;;;4975632;28;20121;-75
2021/08/28 04:52:12;;;;;;;7.68;4.03;;;;;;;;;;4991571;28;20029;-74
2021/08/28 04:54:38;;;;;;;6.25;4.03;;;;;;;;;;4993784;28;20433;-74
2021/08/28 04:57:04;;;;;;;5.90;4.15;;;;;;;;;;5011502;28;20034;-75
2021/08/28 04:59:29;;;;;;;11.70;4.25;;;;;;;;;;5012255;28;20417;-73
2021/08/28 05:01:55;;;;;;;9.23;5.82;;;;;;;;;;5012497;28;20030;-75
2021/08/28 05:04:20;;;;;;;7.07;4.28;;;;;;;;;;5010946;28;20033;-75
2021/08/28 05:06:46;;;;;;;5.22;4.07;;;;;;;;;;5012034;28;20073;-75
2021/08/28 05:09:12;;;;;;;8.25;4.53;;;;;;;;;;5011018;28;20062;-75
2021/08/28 05:11:38;;;;;;;6.03;3.95;;;;;;;;;;5012175;28;20033;-75
2021/08/28 05:14:03;;;;;;;8.02;3.95;;;;;;;;;;4994784;28;20029;-76
2021/08/28 05:16:29;;;;;;;5.97;4.15;;;;;;;;;;4994436;28;20034;-75
2021/08/28 05:18:54;;;;;;;9.93;4.13;;;;;;;;;;5011946;28;20427;-75
2021/08/28 05:21:20;;;;;;;7.03;4.15;;;;;;;;;;5011991;28;20520;-74
2021/08/28 05:23:46;;;;;;;8.40;3.83;;;;;;;;;;4994178;28;20045;-74
2021/08/28 05:26:11;;;;;;;12.02;4.90;;;;;;;;;;4994263;28;20053;-75
2021/08/28 05:28:36;;;;;;;5.63;4.55;;;;;;;;;;5011565;28;20038;-75
2021/08/28 05:31:03;;;;;;;4.18;3.78;;;;;;;;;;5011869;28;20474;-74
2021/08/28 05:33:29;;;;;;;7.03;4.55;;;;;;;;;;4994189;28;20045;-75
2021/08/28 05:35:54;;;;;;;6.22;4.13;;;;;;;;;;5011748;28;20030;-75
2021/08/28 05:38:20;;;;;;;8.25;4.03;;;;;;;;;;5011752;28;20414;-75
2021/08/28 05:40:45;;;;;;;8.55;4.90;;;;;;;;;;5011443;28;20112;-74
2021/08/28 05:43:11;;;;;;;5.35;3.80;;;;;;;;;;4993831;28;20041;-74
2021/08/28 05:45:36;;;;;;;7.55;3.78;;;;;;;;;;5011329;28;20446;-75
2021/08/28 05:48:02;;;;;;;14.38;4.68;;;;;;;;;;4993614;28;20098;-74
2021/08/28 05:50:28;;;;;;;5.05;4.00;;;;;;;;;;5010354;28;20034;-74
2021/08/28 05:52:53;;;;;;;7.20;4.75;;;;;;;;;;5011332;28;20077;-76
2021/08/28 05:55:19;;;;;;;6.28;4.32;;;;;;;;;;5011427;28;20030;-74
2021/08/28 05:57:44;;;;;;;6.50;4.15;;;;;;;;;;5011073;28;20033;-75
2021/08/28 06:00:11;;;;;;;4.80;3.90;;;;;;;;;;4993902;28;20057;-75
2021/08/28 06:02:37;;;;;;;9.43;4.43;;;;;;;;;;5010919;28;20026;-74
2021/08/28 06:05:10;;;;;;;5.38;4.10;;;;;;;;;;4992885;28;20482;-72
2021/08/28 06:07:36;;;;;;;6.50;4.30;;;;;;;;;;5010380;28;20497;-74
2021/08/28 06:10:03;;;;;;;8.23;4.07;;;;;;;;;;5011016;28;20038;-75
2021/08/28 06:12:29;;;;;;;5.20;3.92;;;;;;;;;;5011260;28;20034;-73
2021/08/28 06:14:57;;;;;;;5.57;3.47;;;;;;;;;;5010428;28;20100;-74
2021/08/28 06:17:22;;;;;;;6.05;4.22;;;;;;;;;;4992889;28;20478;-75
2021/08/28 06:19:48;;;;;;;8.00;4.47;;;;;;;;;;4992993;28;20040;-74
2021/08/28 06:22:13;;;;;;;5.55;3.67;;;;;;;;;;5010653;28;20084;-74
2021/08/28 06:24:39;;;;;;;7.38;4.85;;;;;;;;;;4992830;28;20040;-76
2021/08/28 06:27:05;;;;;;;6.18;4.65;;;;;;;;;;5010459;28;20088;-76
2021/08/28 06:29:30;;;;;;;5.85;4.93;;;;;;;;;;4976835;28;20122;-75
2021/08/28 06:31:56;;;;;;;14.13;6.25;;;;;;;;;;4992688;28;20149;-74
2021/08/28 06:34:22;;;;;;;8.57;4.65;;;;;;;;;;4993019;28;20033;-75
2021/08/28 06:36:48;;;;;;;6.47;5.05;;;;;;;;;;4993007;28;20025;-74
2021/08/28 06:39:13;;;;;;;4.90;4.05;;;;;;;;;;5010651;28;20026;-75
2021/08/28 06:41:39;;;;;;;10.75;4.90;;;;;;;;;;5010359;28;20089;-75
2021/08/28 06:44:05;;;;;;;5.10;3.58;;;;;;;;;;5010459;28;20030;-74
2021/08/28 06:46:30;;;;;;;8.90;5.07;;;;;;;;;;5010574;28;20026;-74
2021/08/28 06:48:57;;;;;;;7.05;4.82;;;;;;;;;;4992213;28;20437;-74
2021/08/28 06:51:23;;;;;;;11.00;6.05;;;;;;;;;;4976518;28;20044;-75
2021/08/28 06:53:49;;;;;;;7.25;5.28;;;;;;;;;;4992028;28;20034;-74
2021/08/28 06:56:16;;;;;;;6.53;5.07;;;;;;;;;;5008789;28;20029;-76
2021/08/28 06:58:41;;;;;;;12.50;6.35;;;;;;;;;;4991999;28;20057;-73
2021/08/28 07:01:07;;;;;;;16.17;7.63;;;;;;;;;;4992384;28;20026;-75
2021/08/28 07:03:32;;;;;;;8.80;5.47;;;;;;;;;;5010347;28;20109;-76
2021/08/28 07:05:58;;;;;;;6.65;4.40;;;;;;;;;;5009659;28;20034;-74
2021/08/28 07:08:23;;;;;;;8.68;5.85;;;;;;;;;;5009722;28;20029;-73
2021/08/28 07:10:49;;;;;;;7.80;4.10;;;;;;;;;;5009802;28;20033;-75
2021/08/28 07:13:14;;;;;;;7.65;4.38;;;;;;;;;;5010099;28;20034;-74
2021/08/28 07:15:41;;;;;;;11.93;5.28;;;;;;;;;;5009267;28;20441;-74
2021/08/28 07:18:09;;;;;;;14.82;5.43;;;;;;;;;;5009877;28;20050;-73
2021/08/28 07:20:35;;;;;;;15.98;5.50;;;;;;;;;;4992150;28;20030;-76
2021/08/28 07:23:00;;;;;;;7.25;5.15;;;;;;;;;;5009677;28;20049;-74
2021/08/28 07:25:27;;;;;;;6.72;4.80;;;;;;;;;;5009692;28;20104;-75
2021/08/28 07:27:53;;;;;;;5.55;4.18;;;;;;;;;;5008091;28;20054;-73
2021/08/28 07:30:19;;;;;;;5.90;4.60;;;;;;;;;;4991861;28;20512;-75
2021/08/28 07:32:44;;;;;;;7.05;4.30;;;;;;;;;;4991853;28;20059;-74
2021/08/28 07:35:10;;;;;;;10.40;4.40;;;;;;;;;;5008433;28;20029;-74
2021/08/28 07:37:36;;;;;;;5.97;4.45;;;;;;;;;;4991833;28;20465;-74
2021/08/28 07:40:03;;;;;;;8.40;3.97;;;;;;;;;;5009393;28;20041;-75
2021/08/28 07:42:28;;;;;;;5.45;4.22;;;;;;;;;;4992017;28;20097;-75
2021/08/28 07:44:54;;;;;;;5.25;4.32;;;;;;;;;;5009566;28;20070;-74
2021/08/28 07:47:19;;;;;;;7.32;4.10;;;;;;;;;;5008688;28;20053;-74
2021/08/28 07:49:45;;;;;;;5.35;4.00;;;;;;;;;;4991537;28;20029;-74
2021/08/28 07:52:10;;;;;;;9.85;7.07;;;;;;;;;;5009582;28;20033;-74
2021/08/28 07:54:36;;;;;;;18.00;10.73;;;;;;;;;;5009537;28;20506;-75
2021/08/28 07:57:02;;;;;;;10.63;6.30;;;;;;;;;;4991783;28;20056;-75
2021/08/28 07:59:28;;;;;;;8.07;4.70;;;;;;;;;;4991698;28;20099;-75
2021/08/28 08:01:54;;;;;;;11.20;4.68;;;;;;;;;;4991337;28;20101;-74
2021/08/28 08:04:20;;;;;;;6.50;4.28;;;;;;;;;;5007916;28;20109;-73
2021/08/28 08:06:45;;;;;;;4.63;3.72;;;;;;;;;;5009064;28;20088;-75
2021/08/28 08:09:11;;;;;;;3.95;3.58;;;;;;;;;;4991430;28;20018;-74
2021/08/28 08:11:36;;;;;;;5.07;4.15;;;;;;;;;;4991414;28;20025;-73
2021/08/28 08:14:02;;;;;;;8.13;4.10;;;;;;;;;;5008978;28;20040;-74
2021/08/28 08:16:28;;;;;;;5.55;3.78;;;;;;;;;;5009252;28;20381;-74
2021/08/28 08:18:54;;;;;;;5.32;4.03;;;;;;;;;;4991118;28;20536;-76
2021/08/28 08:21:20;;;;;;;6.75;4.32;;;;;;;;;;5009357;28;20049;-75
2021/08/28 08:23:46;;;;;;;6.13;4.20;;;;;;;;;;4990803;28;20124;-75
2021/08/28 08:26:12;;;;;;;9.13;4.00;;;;;;;;;;4991182;28;20581;-74
2021/08/28 08:28:37;;;;;;;4.47;4.00;;;;;;;;;;4994240;28;20033;-76
2021/08/28 08:31:03;;;;;;;5.75;4.13;;;;;;;;;;5011190;28;20034;-73
2021/08/28 08:33:29;;;;;;;16.98;6.72;;;;;;;;;;5012847;28;20463;-74
2021/08/28 08:35:55;;;;;;;13.88;7.22;;;;;;;;;;4994810;28;20116;-74
2021/08/28 08:38:20;;;;;;;16.52;8.65;;;;;;;;;;4995171;28;20022;-75
2021/08/28 08:40:50;;;;;;;9.20;5.68;;;;;;;;;;5010805;28;20037;-75
2021/08/28 08:43:17;;;;;;;6.60;5.68;;;;;;;;;;4995149;28;20033;-75
2021/08/28 08:45:46;;;;;;;8.10;5.57;;;;;;;;;;4995367;28;20033;-75
2021/08/28 08:48:13;;;;;;;7.13;5.70;;;;;;;;;;5012632;28;20032;-76
2021/08/28 08:50:39;;;;;;;12.38;8.15;;;;;;;;;;4995453;28;20095;-74
2021/08/28 08:53:07;;;;;;;10.73;8.05;;;;;;;;;;4996074;28;20334;-75
2021/08/28 08:55:33;;;;;;;7.40;6.07;;;;;;;;;;5012688;28;20038;-74
2021/08/28 08:57:59;;;;;;;13.43;8.90;;;;;;;;;;4994818;28;20037;-75
2021/08/28 09:00:26;;;;;;;10.57;8.20;;;;;;;;;;4995309;28;20029;-74
2021/08/28 09:02:52;;;;;;;13.50;7.60;;;;;;;;;;4996388;28;20033;-73
2021/08/28 09:05:17;;;;;;;13.65;9.88;;;;;;;;;;5013687;28;20517;-73
2021/08/28 09:07:43;;;;;;;17.08;10.07;;;;;;;;;;5011899;28;20216;-74
2021/08/28 09:10:12;;;;;;;14.07;10.07;;;;;;;;;;5011983;28;20113;-75
2021/08/28 09:12:39;;;;;;;25.90;12.43;;;;;;;;;;4994673;28;20029;-75
2021/08/28 09:15:08;;;;;;;15.40;10.75;;;;;;;;;;5011773;28;20030;-75
2021/08/28 09:17:34;;;;;;;15.52;10.85;;;;;;;;;;4993682;28;20112;-74
2021/08/28 09:20:01;;;;;;;12.50;9.05;;;;;;;;;;5011359;28;20034;-75
2021/08/28 09:22:30;;;;;;;11.73;8.20;;;;;;;;;;5010167;28;20041;-74
2021/08/28 09:25:00;;;;;;;9.95;7.60;;;;;;;;;;4993703;28;20080;-76
2021/08/28 09:27:38;;;;;;;12.48;10.55;;;;;;;;;;4994251;28;20126;-75
2021/08/28 09:30:27;;;;;;;10.68;9.57;;;;;;;;;;4993800;28;20129;-75
2021/08/28 09:32:56;;;;;;;10.00;9.00;;;;;;;;;;4993951;28;20464;-75
2021/08/28 09:35:24;;;;;;;14.63;10.70;;;;;;;;;;5011750;28;20038;-77
2021/08/28 09:38:02;;;;;;;12.73;9.75;;;;;;;;;;4993652;28;20041;-75
2021/08/28 09:40:32;;;;;;;11.30;9.63;;;;;;;;;;5010846;28;20037;-75
2021/08/28 09:43:06;;;;;;;8.18;7.38;;;;;;;;;;5011639;28;20033;-75
2021/08/28 09:45:35;;;;;;;10.13;7.50;;;;;;;;;;4993676;28;20065;-75
2021/08/28 09:48:03;;;;;;;9.52;8.30;;;;;;;;;;5011423;28;20041;-75
2021/08/28 09:50:51;;;;;;;8.63;7.68;;;;;;;;;;4977842;28;20402;-75
2021/08/28 09:53:27;;;;;;;12.35;8.55;;;;;;;;;;5011441;28;20021;-77
2021/08/28 09:56:01;;;;;;;9.80;8.80;;;;;;;;;;5011040;28;20037;-75
2021/08/28 09:58:31;;;;;;;15.40;13.63;;;;;;;;;;4993445;28;20028;-75
2021/08/28 10:01:01;;;;;;;9.43;7.65;;;;;;;;;;4993758;28;20034;-76
2021/08/28 10:03:28;;;;;;;8.23;7.43;;;;;;;;;;5010887;28;20545;-74
2021/08/28 10:05:55;;;;;;;9.95;8.25;;;;;;;;;;4992998;28;20544;-75
2021/08/28 10:08:21;;;;;;;12.13;8.48;;;;;;;;;;4992958;28;20041;-74
2021/08/28 10:10:46;;;;;;;11.48;8.70;;;;;;;;;;5010697;28;20034;-74
2021/08/28 10:13:12;;;;;;;10.75;9.10;;;;;;;;;;5010771;28;20030;-75
2021/08/28 10:15:38;;;;;;;10.45;8.38;;;;;;;;;;4993119;28;20040;-74
2021/08/28 10:18:07;;;;;;;12.13;9.13;;;;;;;;;;4992667;28;20026;-74
2021/08/28 10:20:33;;;;;;;9.63;8.43;;;;;;;;;;5010753;28;20052;-75
2021/08/28 10:23:02;;;;;;;17.02;9.70;;;;;;;;;;5010557;28;20034;-76
2021/08/28 10:25:31;;;;;;;9.88;7.43;;;;;;;;;;5010557;28;20033;-74
2021/08/28 10:27:57;;;;;;;8.65;7.45;;;;;;;;;;4992318;28;20072;-75
2021/08/28 10:30:24;;;;;;;10.48;8.65;;;;;;;;;;4992476;28;20037;-75
2021/08/28 10:32:52;;;;;;;13.63;8.68;;;;;;;;;;4992498;28;20030;-75
2021/08/28 10:35:19;;;;;;;12.20;8.07;;;;;;;;;;4992794;28;20032;-76
2021/08/28 10:37:45;;;;;;;11.27;8.43;;;;;;;;;;5010328;28;20030;-75
2021/08/28 10:40:24;;;;;;;9.48;7.53;;;;;;;;;;4992216;28;20080;-74
2021/08/28 10:42:53;;;;;;;9.10;7.72;;;;;;;;;;4992343;28;20137;-75
2021/08/28 10:45:31;;;;;;;10.15;8.07;;;;;;;;;;5010117;28;20049;-75
2021/08/28 10:48:02;;;;;;;7.93;6.57;;;;;;;;;;4991918;28;20060;-74
2021/08/28 10:50:38;;;;;;;8.45;6.80;;;;;;;;;;5009953;28;20037;-74
2021/08/28 10:53:05;;;;;;;7.40;6.43;;;;;;;;;;4991780;28;20061;-73
2021/08/28 10:55:40;;;;;;;7.47;6.75;;;;;;;;;;4992121;28;20108;-74
2021/08/28 10:58:12;;;;;;;6.95;6.25;;;;;;;;;;5009802;28;20022;-75
2021/08/28 11:00:45;;;;;;;7.57;6.80;;;;;;;;;;4992191;28;20316;-75
2021/08/28 11:03:32;;;;;;;8.50;5.88;;;;;;;;;;4992179;28;20034;-74
2021/08/28 11:06:13;;;;;;;26.52;14.10;;;;;;;;;;4991745;28;20053;-75
2021/08/28 11:08:52;;;;;;;11.05;9.50;;;;;;;;;;4992085;28;20021;-74
2021/08/28 11:11:28;;;;;;;7.53;5.55;;;;;;;;;;5009775;28;20029;-75
2021/08/28 11:14:01;;;;;;;6.35;5.68;;;;;;;;;;4991399;28;20327;-75
2021/08/28 11:16:45;;;;;;;7.00;5.72;;;;;;;;;;5009410;28;20472;-75
2021/08/28 11:19:33;;;;;;;6.97;4.47;;;;;;;;;;4991262;28;20033;-76
2021/08/28 11:21:58;;;;;;;7.70;5.65;;;;;;;;;;5009349;28;20033;-74
2021/08/28 11:24:26;;;;;;;6.03;4.93;;;;;;;;;;4991626;28;20030;-74
2021/08/28 11:26:57;;;;;;;6.38;5.50;;;;;;;;;;5008821;28;20099;-74
2021/08/28 11:29:31;;;;;;;5.95;4.68;;;;;;;;;;5009435;28;20032;-75
2021/08/28 11:32:17;;;;;;;5.13;4.63;;;;;;;;;;5008302;28;20050;-75
2021/08/28 11:35:08;;;;;;;5.88;3.80;;;;;;;;;;4991601;28;20080;-74
2021/08/28 11:37:34;;;;;;;4.43;4.00;;;;;;;;;;5005320;28;20048;-74
2021/08/28 11:40:06;;;;;;;5.63;4.00;;;;;;;;;;5009785;28;20022;-73
2021/08/28 11:42:33;;;;;;;9.02;5.25;;;;;;;;;;4993600;28;20481;-74
2021/08/28 11:45:01;;;;;;;4.93;4.40;;;;;;;;;;4991750;28;20076;-73
2021/08/28 11:47:27;;;;;;;5.65;4.10;;;;;;;;;;5009210;28;20029;-76
2021/08/28 11:49:56;;;;;;;9.57;4.20;;;;;;;;;;5009395;28;20429;-75
2021/08/28 11:52:22;;;;;;;7.82;2.72;;;;;;;;;;4991594;28;20022;-75
2021/08/28 11:54:48;;;;;;;5.47;4.28;;;;;;;;;;5008846;28;20101;-73
2021/08/28 11:57:20;;;;;;;3.78;3.17;;;;;;;;;;4991169;28;20074;-74
2021/08/28 11:59:45;;;;;;;3.03;2.30;;;;;;;;;;4990988;28;20096;-74
2021/08/28 12:02:11;;;;;;;4.85;2.47;;;;;;;;;;5009528;28;20033;-76
2021/08/28 12:04:37;;;;;;;3.30;2.78;;;;;;;;;;4994754;28;20025;-75
2021/08/28 12:07:05;;;;;;;2.95;2.63;;;;;;;;;;5012621;28;20033;-73
2021/08/28 12:09:32;;;;;;;2.65;2.17;;;;;;;;;;5012432;28;20026;-75
2021/08/28 12:11:58;;;;;;;2.83;2.50;;;;;;;;;;4994758;28;20022;-74
2021/08/28 12:14:27;;;;;;;2.20;1.80;;;;;;;;;;5012370;28;20489;-74
2021/08/28 12:16:53;;;;;;;4.53;2.10;;;;;;;;;;5011836;28;20100;-74
2021/08/28 12:19:23;;;;;;;2.78;2.25;;;;;;;;;;4994342;28;20029;-74
2021/08/28 12:21:54;;;;;;;2.50;2.13;;;;;;;;;;4994394;28;20030;-76
2021/08/28 12:24:23;;;;;;;3.15;2.65;;;;;;;;;;5012213;28;20041;-73
2021/08/28 12:27:04;;;;;;;4.63;3.72;;;;;;;;;;4993960;28;20483;-75
2021/08/28 12:29:33;;;;;;;9.57;6.55;;;;;;;;;;5011697;28;20081;-74
2021/08/28 12:32:18;;;;;;;3.80;3.05;;;;;;;;;;5011801;28;20029;-74
2021/08/28 12:34:55;;;;;;;2.95;2.20;;;;;;;;;;5013823;28;20037;-75
2021/08/28 12:37:25;;;;;;;2.70;2.40;;;;;;;;;;4994643;28;20034;-74
2021/08/28 12:39:59;;;;;;;2.63;2.42;;;;;;;;;;5010683;28;20382;-73
2021/08/28 12:42:25;;;;;;;3.13;2.30;;;;;;;;;;4994667;28;20033;-75
2021/08/28 12:45:03;;;;;;;4.03;2.67;;;;;;;;;;4994786;28;20060;-73
2021/08/28 12:47:32;;;;;;;4.47;2.83;;;;;;;;;;5015121;28;20025;-73
2021/08/28 12:49:59;;;;;;;2.97;2.33;;;;;;;;;;5014449;28;20061;-74
2021/08/28 12:52:42;;;;;;;2.95;2.58;;;;;;;;;;4980010;28;20045;-73
2021/08/28 12:55:29;;;;;;;4.15;2.88;;;;;;;;;;5000288;28;20045;-74
2021/08/28 12:58:02;;;;;;;3.22;2.75;;;;;;;;;;4987779;28;20030;-74
2021/08/28 13:00:38;;;;;;;2.78;2.58;;;;;;;;;;5014700;28;20041;-75
2021/08/28 13:03:04;;;;;;;4.40;3.05;;;;;;;;;;4980275;28;20041;-74
2021/08/28 13:05:31;;;;;;;3.50;2.90;;;;;;;;;;4994232;28;20034;-73
2021/08/28 13:07:59;;;;;;;4.25;2.60;;;;;;;;;;5012716;28;20030;-75
2021/08/28 13:10:26;;;;;;;2.65;2.17;;;;;;;;;;5001921;28;20033;-73
2021/08/28 13:13:03;;;;;;;5.93;1.90;;;;;;;;;;5003755;28;20128;-72
2021/08/28 13:15:37;;;;;;;2.17;1.98;;;;;;;;;;5018703;28;20030;-74
2021/08/28 13:18:07;;;;;;;4.45;2.88;;;;;;;;;;5008582;28;20028;-73
2021/08/28 13:20:40;;;;;;;2.53;2.25;;;;;;;;;;5019967;28;20030;-74
2021/08/28 13:23:12;;;;;;;3.05;2.05;;;;;;;;;;5018004;28;20538;-73
2021/08/28 13:25:51;;;;;;;4.60;2.80;;;;;;;;;;5005369;28;20057;-74
2021/08/28 13:28:30;;;;;;;3.13;2.83;;;;;;;;;;4983228;28;20058;-75
2021/08/28 13:31:19;;;;;;;5.47;2.85;;;;;;;;;;4998877;28;20430;-73
2021/08/28 13:34:00;;;;;;;3.28;2.97;;;;;;;;;;4998555;28;20064;-74
2021/08/28 13:36:29;;;;;;;3.97;2.80;;;;;;;;;;4966624;28;20050;-73
2021/08/28 13:38:56;;;;;;;3.30;2.85;;;;;;;;;;4968083;28;20117;-73
2021/08/28 13:41:22;;;;;;;3.85;2.75;;;;;;;;;;5001850;28;20085;-74
2021/08/28 13:43:48;;;;;;;4.20;3.22;;;;;;;;;;5000766;28;20030;-73
2021/08/28 13:46:14;;;;;;;3.20;2.90;;;;;;;;;;4997283;28;20049;-74
2021/08/28 13:48:40;;;;;;;5.15;3.17;;;;;;;;;;4981330;28;20206;-75
2021/08/28 13:51:06;;;;;;;3.42;2.88;;;;;;;;;;4995916;28;20038;-73
2021/08/28 13:53:32;;;;;;;8.23;5.15;;;;;;;;;;4993152;28;20062;-75
2021/08/28 13:55:59;;;;;;;3.65;2.58;;;;;;;;;;4973555;28;20026;-74
2021/08/28 13:58:24;;;;;;;2.97;2.65;;;;;;;;;;4990919;28;20062;-73
2021/08/28 14:00:50;;;;;;;4.68;2.92;;;;;;;;;;4973212;28;20061;-72
2021/08/28 14:03:17;;;;;;;4.50;3.38;;;;;;;;;;4973508;28;20422;-73
2021/08/28 14:05:42;;;;;;;4.47;2.80;;;;;;;;;;4991006;28;20136;-73
2021/08/28 14:08:08;;;;;;;3.78;3.45;;;;;;;;;;4973884;28;20065;-73
2021/08/28 14:10:34;;;;;;;4.13;3.67;;;;;;;;;;4993202;28;20032;-72
2021/08/28 14:13:00;;;;;;;3.65;2.63;;;;;;;;;;4974275;28;20034;-73
2021/08/28 14:15:27;;;;;;;5.00;3.42;;;;;;;;;;4973607;28;20026;-74
2021/08/28 14:17:53;;;;;;;3.42;3.10;;;;;;;;;;4990925;28;20105;-74
2021/08/28 14:20:20;;;;;;;5.05;3.72;;;;;;;;;;4991115;28;20108;-73
2021/08/28 14:22:47;;;;;;;4.80;4.00;;;;;;;;;;4990729;28;20427;-73
2021/08/28 14:25:15;;;;;;;4.25;3.85;;;;;;;;;;4972676;28;20061;-75
2021/08/28 14:27:41;;;;;;;13.27;8.88;;;;;;;;;;4983325;28;20057;-74
2021/08/28 14:30:07;;;;;;;5.95;4.30;;;;;;;;;;4973030;28;20378;-75
2021/08/28 14:32:33;;;;;;;6.43;4.85;;;;;;;;;;4991064;28;20418;-74
2021/08/28 14:34:59;;;;;;;6.05;5.07;;;;;;;;;;4990995;28;20034;-73
2021/08/28 14:37:25;;;;;;;4.25;3.38;;;;;;;;;;4973244;28;20177;-75
2021/08/28 14:39:50;;;;;;;5.13;4.63;;;;;;;;;;4991207;28;20066;-73
2021/08/28 14:42:16;;;;;;;5.90;4.38;;;;;;;;;;4990553;28;20164;-74
2021/08/28 14:44:41;;;;;;;6.32;3.83;;;;;;;;;;4990679;28;20034;-73
2021/08/28 14:47:07;;;;;;;9.77;5.93;;;;;;;;;;4972584;28;20078;-73